Christoval, Texas
Current Conditions -  °F | °C
As of 9:51 AM on Tuesday 21 Oct 2014 (Local Time) from KSJT Reporting Station
Clear Clear  
Wind Chill: 64°   Ceiling: Unl
Heat Index: 64°   Visibility: 10mi
Dew Point: 55°   Wind: 5mph
Humidity: 72%   Direction: NA
Pressure: 30.13"   Gusts: NA
Location:  31.19°N, 100.5°W
Report Text: KSJT 211451Z VRB04KT 10SM CLR 18/13 A3013 RMK AO2 SLP192 T01780128 53017
Loading
Personal Weather Stations






























Interactive Weather Map
Tropical Storm Tracking
New forecast layout! Learn more

10-Day Weather Forecast

Advertisements
Track Severe Weather on mobile